sensor_id;sensor_type;location;lat;lon;timestamp;P1;durP1;ratioP1;P2;durP2;ratioP2
2438;SDS011;14509;47.992;7.848;2023-03-12T00:02:00;2.50;;;2.25;;
2438;SDS011;14509;47.992;7.848;2023-03-12T00:04:02;2.78;;;2.42;;
2438;SDS011;14509;47.992;7.848;2023-03-12T00:06:05;2.53;;;1.60;;
2438;SDS011;14509;47.992;7.848;2023-03-12T00:08:07;2.25;;;1.85;;
2438;SDS011;14509;47.992;7.848;2023-03-12T00:10:10;4.30;;;2.05;;
2438;SDS011;14509;47.992;7.848;2023-03-12T00:12:12;3.13;;;2.58;;
2438;SDS011;14509;47.992;7.848;2023-03-12T00:14:14;4.63;;;3.28;;
2438;SDS011;14509;47.992;7.848;2023-03-12T00:16:16;2.20;;;2.00;;
2438;SDS011;14509;47.992;7.848;2023-03-12T00:18:19;3.20;;;2.83;;
2438;SDS011;14509;47.992;7.848;2023-03-12T00:20:21;4.60;;;2.67;;
2438;SDS011;14509;47.992;7.848;2023-03-12T00:22:23;2.50;;;2.17;;
2438;SDS011;14509;47.992;7.848;2023-03-12T00:24:25;1.92;;;1.83;;
2438;SDS011;14509;47.992;7.848;2023-03-12T00:26:27;4.72;;;2.80;;
2438;SDS011;14509;47.992;7.848;2023-03-12T00:28:29;2.60;;;2.40;;
2438;SDS011;14509;47.992;7.848;2023-03-12T00:30:31;5.13;;;2.50;;
2438;SDS011;14509;47.992;7.848;2023-03-12T00:32:33;4.53;;;3.28;;
2438;SDS011;14509;47.992;7.848;2023-03-12T00:34:37;3.17;;;2.53;;
2438;SDS011;14509;47.992;7.848;2023-03-12T00:36:39;5.63;;;3.65;;
2438;SDS011;14509;47.992;7.848;2023-03-12T00:38:41;4.88;;;2.70;;
2438;SDS011;14509;47.992;7.848;2023-03-12T00:40:43;4.03;;;2.80;;
2438;SDS011;14509;47.992;7.848;2023-03-12T00:42:45;4.50;;;2.80;;
2438;SDS011;14509;47.992;7.848;2023-03-12T00:44:47;4.38;;;3.15;;
2438;SDS011;14509;47.992;7.848;2023-03-12T00:46:48;3.78;;;2.28;;
2438;SDS011;14509;47.992;7.848;2023-03-12T00:48:50;2.45;;;2.25;;
2438;SDS011;14509;47.992;7.848;2023-03-12T00:50:54;1.90;;;1.80;;
2438;SDS011;14509;47.992;7.848;2023-03-12T00:52:55;2.88;;;2.58;;
2438;SDS011;14509;47.992;7.848;2023-03-12T00:54:57;4.60;;;2.70;;
2438;SDS011;14509;47.992;7.848;2023-03-12T00:57:01;2.97;;;2.70;;
2438;SDS011;14509;47.992;7.848;2023-03-12T00:59:03;3.70;;;2.45;;
2438;SDS011;14509;47.992;7.848;2023-03-12T01:01:05;3.45;;;3.10;;
2438;SDS011;14509;47.992;7.848;2023-03-12T01:03:07;8.13;;;2.35;;
2438;SDS011;14509;47.992;7.848;2023-03-12T01:05:09;5.10;;;3.30;;
2438;SDS011;14509;47.992;7.848;2023-03-12T01:07:14;2.80;;;2.55;;
2438;SDS011;14509;47.992;7.848;2023-03-12T01:09:16;3.80;;;3.20;;
2438;SDS011;14509;47.992;7.848;2023-03-12T01:11:18;2.75;;;2.55;;
2438;SDS011;14509;47.992;7.848;2023-03-12T01:13:20;4.18;;;3.13;;
2438;SDS011;14509;47.992;7.848;2023-03-12T01:15:22;3.90;;;3.20;;
2438;SDS011;14509;47.992;7.848;2023-03-12T01:17:25;4.03;;;3.25;;
2438;SDS011;14509;47.992;7.848;2023-03-12T01:19:27;2.60;;;2.40;;
2438;SDS011;14509;47.992;7.848;2023-03-12T01:21:29;5.68;;;3.10;;
2438;SDS011;14509;47.992;7.848;2023-03-12T01:23:33;2.80;;;2.60;;
2438;SDS011;14509;47.992;7.848;2023-03-12T01:25:35;3.05;;;2.67;;
2438;SDS011;14509;47.992;7.848;2023-03-12T01:27:37;2.25;;;2.13;;
2438;SDS011;14509;47.992;7.848;2023-03-12T01:29:39;4.38;;;2.58;;
2438;SDS011;14509;47.992;7.848;2023-03-12T01:31:41;3.35;;;2.40;;
2438;SDS011;14509;47.992;7.848;2023-03-12T01:33:43;3.97;;;2.85;;
2438;SDS011;14509;47.992;7.848;2023-03-12T01:35:45;2.75;;;1.90;;
2438;SDS011;14509;47.992;7.848;2023-03-12T01:37:47;2.72;;;2.53;;
2438;SDS011;14509;47.992;7.848;2023-03-12T01:39:50;3.25;;;2.20;;
2438;SDS011;14509;47.992;7.848;2023-03-12T01:41:52;3.03;;;2.55;;
2438;SDS011;14509;47.992;7.848;2023-03-12T01:43:54;2.45;;;2.25;;
2438;SDS011;14509;47.992;7.848;2023-03-12T01:46:04;4.57;;;2.42;;
2438;SDS011;14509;47.992;7.848;2023-03-12T01:48:16;2.65;;;2.45;;
2438;SDS011;14509;47.992;7.848;2023-03-12T01:50:19;3.30;;;2.88;;
2438;SDS011;14509;47.992;7.848;2023-03-12T01:52:22;3.90;;;3.45;;
2438;SDS011;14509;47.992;7.848;2023-03-12T01:54:28;3.22;;;2.65;;
2438;SDS011;14509;47.992;7.848;2023-03-12T01:56:34;2.60;;;2.40;;
2438;SDS011;14509;47.992;7.848;2023-03-12T01:58:38;5.78;;;2.58;;
2438;SDS011;14509;47.992;7.848;2023-03-12T02:00:45;2.05;;;1.85;;
2438;SDS011;14509;47.992;7.848;2023-03-12T02:02:47;6.25;;;3.88;;
2438;SDS011;14509;47.992;7.848;2023-03-12T02:04:56;3.15;;;2.40;;
2438;SDS011;14509;47.992;7.848;2023-03-12T02:07:06;2.55;;;1.92;;
2438;SDS011;14509;47.992;7.848;2023-03-12T02:09:09;4.03;;;2.20;;
2438;SDS011;14509;47.992;7.848;2023-03-12T02:11:12;3.15;;;1.95;;
2438;SDS011;14509;47.992;7.848;2023-03-12T02:13:16;3.40;;;2.47;;
2438;SDS011;14509;47.992;7.848;2023-03-12T02:15:21;4.60;;;2.20;;
2438;SDS011;14509;47.992;7.848;2023-03-12T02:17:23;4.38;;;3.45;;
2438;SDS011;14509;47.992;7.848;2023-03-12T02:19:26;3.35;;;2.55;;
2438;SDS011;14509;47.992;7.848;2023-03-12T02:21:34;3.28;;;2.45;;
2438;SDS011;14509;47.992;7.848;2023-03-12T02:23:37;3.03;;;2.60;;
2438;SDS011;14509;47.992;7.848;2023-03-12T02:25:47;3.97;;;2.60;;
2438;SDS011;14509;47.992;7.848;2023-03-12T02:27:52;2.13;;;1.98;;
2438;SDS011;14509;47.992;7.848;2023-03-12T02:29:54;4.95;;;1.92;;
2438;SDS011;14509;47.992;7.848;2023-03-12T02:31:56;2.30;;;2.10;;
2438;SDS011;14509;47.992;7.848;2023-03-12T02:34:00;1.75;;;1.65;;
2438;SDS011;14509;47.992;7.848;2023-03-12T02:36:02;3.63;;;2.08;;
2438;SDS011;14509;47.992;7.848;2023-03-12T02:40:35;2.80;;;2.05;;
2438;SDS011;14509;47.992;7.848;2023-03-12T02:42:43;3.50;;;2.13;;
2438;SDS011;14509;47.992;7.848;2023-03-12T02:44:45;2.22;;;2.03;;
2438;SDS011;14509;47.992;7.848;2023-03-12T02:46:47;2.30;;;2.10;;
2438;SDS011;14509;47.992;7.848;2023-03-12T02:48:50;3.03;;;1.95;;
2438;SDS011;14509;47.992;7.848;2023-03-12T02:50:54;2.92;;;2.60;;
2438;SDS011;14509;47.992;7.848;2023-03-12T02:52:56;4.35;;;3.15;;
2438;SDS011;14509;47.992;7.848;2023-03-12T02:54:58;4.00;;;2.47;;
2438;SDS011;14509;47.992;7.848;2023-03-12T02:57:00;3.03;;;2.45;;
2438;SDS011;14509;47.992;7.848;2023-03-12T02:59:06;2.65;;;2.45;;
2438;SDS011;14509;47.992;7.848;2023-03-12T03:01:12;2.42;;;2.22;;
2438;SDS011;14509;47.992;7.848;2023-03-12T03:03:14;2.78;;;2.55;;
2438;SDS011;14509;47.992;7.848;2023-03-12T03:05:16;2.75;;;2.20;;
2438;SDS011;14509;47.992;7.848;2023-03-12T03:07:19;3.28;;;2.42;;
2438;SDS011;14509;47.992;7.848;2023-03-12T03:09:21;2.72;;;2.53;;
2438;SDS011;14509;47.992;7.848;2023-03-12T03:11:24;3.20;;;2.90;;
2438;SDS011;14509;47.992;7.848;2023-03-12T03:13:28;4.60;;;2.58;;
2438;SDS011;14509;47.992;7.848;2023-03-12T03:15:32;3.40;;;2.30;;
2438;SDS011;14509;47.992;7.848;2023-03-12T03:17:35;2.80;;;2.35;;
2438;SDS011;14509;47.992;7.848;2023-03-12T03:19:36;2.30;;;2.10;;
2438;SDS011;14509;47.992;7.848;2023-03-12T03:21:38;4.38;;;2.58;;
2438;SDS011;14509;47.992;7.848;2023-03-12T03:23:41;3.85;;;2.35;;
2438;SDS011;14509;47.992;7.848;2023-03-12T03:25:44;2.78;;;1.95;;
2438;SDS011;14509;47.992;7.848;2023-03-12T03:27:46;2.88;;;2.25;;
2438;SDS011;14509;47.992;7.848;2023-03-12T03:29:48;5.32;;;2.80;;
2438;SDS011;14509;47.992;7.848;2023-03-12T03:31:52;4.75;;;3.00;;
2438;SDS011;14509;47.992;7.848;2023-03-12T03:33:53;2.40;;;2.20;;
2438;SDS011;14509;47.992;7.848;2023-03-12T03:35:55;3.42;;;2.35;;
2438;SDS011;14509;47.992;7.848;2023-03-12T03:37:59;2.30;;;2.10;;
2438;SDS011;14509;47.992;7.848;2023-03-12T03:40:01;3.35;;;2.08;;
2438;SDS011;14509;47.992;7.848;2023-03-12T03:42:03;2.85;;;2.20;;
2438;SDS011;14509;47.992;7.848;2023-03-12T03:44:06;2.05;;;1.85;;
2438;SDS011;14509;47.992;7.848;2023-03-12T03:46:11;2.28;;;1.60;;
2438;SDS011;14509;47.992;7.848;2023-03-12T03:48:17;3.05;;;2.30;;
2438;SDS011;14509;47.992;7.848;2023-03-12T03:50:19;2.45;;;2.00;;
2438;SDS011;14509;47.992;7.848;2023-03-12T03:52:22;4.30;;;2.13;;
2438;SDS011;14509;47.992;7.848;2023-03-12T03:54:23;2.40;;;2.20;;
2438;SDS011;14509;47.992;7.848;2023-03-12T03:56:26;3.40;;;2.20;;
2438;SDS011;14509;47.992;7.848;2023-03-12T03:58:30;2.45;;;2.15;;
2438;SDS011;14509;47.992;7.848;2023-03-12T04:00:32;2.47;;;2.25;;
2438;SDS011;14509;47.992;7.848;2023-03-12T04:02:34;3.17;;;2.70;;
2438;SDS011;14509;47.992;7.848;2023-03-12T04:04:38;2.10;;;1.95;;
2438;SDS011;14509;47.992;7.848;2023-03-12T04:06:41;3.00;;;2.47;;
2438;SDS011;14509;47.992;7.848;2023-03-12T04:08:43;3.03;;;2.00;;
2438;SDS011;14509;47.992;7.848;2023-03-12T04:10:48;2.47;;;2.27;;
2438;SDS011;14509;47.992;7.848;2023-03-12T04:12:50;4.82;;;2.35;;
2438;SDS011;14509;47.992;7.848;2023-03-12T04:14:53;2.60;;;2.37;;
2438;SDS011;14509;47.992;7.848;2023-03-12T04:16:55;2.80;;;2.22;;
2438;SDS011;14509;47.992;7.848;2023-03-12T04:18:57;3.27;;;2.73;;
2438;SDS011;14509;47.992;7.848;2023-03-12T04:21:02;4.53;;;2.23;;
2438;SDS011;14509;47.992;7.848;2023-03-12T04:23:05;4.00;;;2.63;;
2438;SDS011;14509;47.992;7.848;2023-03-12T04:25:07;4.73;;;3.00;;
2438;SDS011;14509;47.992;7.848;2023-03-12T04:27:10;3.37;;;2.10;;
2438;SDS011;14509;47.992;7.848;2023-03-12T04:29:13;2.90;;;2.33;;
2438;SDS011;14509;47.992;7.848;2023-03-12T04:31:15;2.78;;;1.92;;
2438;SDS011;14509;47.992;7.848;2023-03-12T04:33:22;2.45;;;2.15;;
2438;SDS011;14509;47.992;7.848;2023-03-12T04:35:24;2.53;;;2.10;;
2438;SDS011;14509;47.992;7.848;2023-03-12T04:37:28;3.23;;;2.23;;
2438;SDS011;14509;47.992;7.848;2023-03-12T04:39:33;2.50;;;2.23;;
2438;SDS011;14509;47.992;7.848;2023-03-12T04:41:35;3.03;;;1.80;;
2438;SDS011;14509;47.992;7.848;2023-03-12T04:43:43;2.53;;;2.33;;
2438;SDS011;14509;47.992;7.848;2023-03-12T04:45:46;2.47;;;2.10;;
2438;SDS011;14509;47.992;7.848;2023-03-12T04:47:47;2.63;;;2.03;;
2438;SDS011;14509;47.992;7.848;2023-03-12T04:49:49;2.83;;;1.57;;
2438;SDS011;14509;47.992;7.848;2023-03-12T04:51:51;1.43;;;1.33;;
2438;SDS011;14509;47.992;7.848;2023-03-12T04:53:55;1.60;;;1.50;;
2438;SDS011;14509;47.992;7.848;2023-03-12T04:55:57;1.77;;;1.67;;
2438;SDS011;14509;47.992;7.848;2023-03-12T04:58:00;1.65;;;1.55;;
2438;SDS011;14509;47.992;7.848;2023-03-12T05:00:03;2.00;;;1.80;;
2438;SDS011;14509;47.992;7.848;2023-03-12T05:02:12;1.70;;;1.50;;
2438;SDS011;14509;47.992;7.848;2023-03-12T05:04:15;1.60;;;1.40;;
2438;SDS011;14509;47.992;7.848;2023-03-12T05:06:17;1.67;;;1.47;;
2438;SDS011;14509;47.992;7.848;2023-03-12T05:08:19;1.40;;;1.30;;
2438;SDS011;14509;47.992;7.848;2023-03-12T05:10:22;1.77;;;1.63;;
2438;SDS011;14509;47.992;7.848;2023-03-12T05:12:24;3.27;;;2.07;;
2438;SDS011;14509;47.992;7.848;2023-03-12T05:14:26;2.07;;;1.83;;
2438;SDS011;14509;47.992;7.848;2023-03-12T05:16:28;2.60;;;1.77;;
2438;SDS011;14509;47.992;7.848;2023-03-12T05:18:30;2.13;;;1.77;;
2438;SDS011;14509;47.992;7.848;2023-03-12T05:20:32;2.47;;;1.77;;
2438;SDS011;14509;47.992;7.848;2023-03-12T05:22:34;1.60;;;1.50;;
2438;SDS011;14509;47.992;7.848;2023-03-12T05:24:36;1.90;;;1.60;;
2438;SDS011;14509;47.992;7.848;2023-03-12T05:26:40;2.80;;;1.90;;
2438;SDS011;14509;47.992;7.848;2023-03-12T05:28:49;1.60;;;1.47;;
2438;SDS011;14509;47.992;7.848;2023-03-12T05:30:53;4.50;;;1.67;;
2438;SDS011;14509;47.992;7.848;2023-03-12T05:32:57;4.23;;;1.77;;
2438;SDS011;14509;47.992;7.848;2023-03-12T05:34:59;1.90;;;1.50;;
2438;SDS011;14509;47.992;7.848;2023-03-12T05:37:01;1.30;;;1.20;;
2438;SDS011;14509;47.992;7.848;2023-03-12T05:39:04;1.40;;;1.30;;
2438;SDS011;14509;47.992;7.848;2023-03-12T05:41:08;2.40;;;1.67;;
2438;SDS011;14509;47.992;7.848;2023-03-12T05:43:18;1.50;;;1.40;;
2438;SDS011;14509;47.992;7.848;2023-03-12T05:45:20;2.40;;;2.03;;
2438;SDS011;14509;47.992;7.848;2023-03-12T05:47:25;1.70;;;1.57;;
2438;SDS011;14509;47.992;7.848;2023-03-12T05:49:27;2.00;;;1.47;;
2438;SDS011;14509;47.992;7.848;2023-03-12T05:51:30;2.10;;;1.40;;
2438;SDS011;14509;47.992;7.848;2023-03-12T05:53:33;1.70;;;1.50;;
2438;SDS011;14509;47.992;7.848;2023-03-12T05:55:35;1.70;;;1.40;;
2438;SDS011;14509;47.992;7.848;2023-03-12T05:57:37;1.53;;;1.43;;
2438;SDS011;14509;47.992;7.848;2023-03-12T05:59:41;3.40;;;1.47;;
2438;SDS011;14509;47.992;7.848;2023-03-12T06:01:43;1.23;;;1.13;;
2438;SDS011;14509;47.992;7.848;2023-03-12T06:03:45;1.73;;;1.20;;
2438;SDS011;14509;47.992;7.848;2023-03-12T06:05:48;1.53;;;1.17;;
2438;SDS011;14509;47.992;7.848;2023-03-12T06:07:54;1.63;;;1.43;;
2438;SDS011;14509;47.992;7.848;2023-03-12T06:09:56;1.80;;;1.60;;
2438;SDS011;14509;47.992;7.848;2023-03-12T06:11:59;2.57;;;1.67;;
2438;SDS011;14509;47.992;7.848;2023-03-12T06:14:01;2.03;;;1.10;;
2438;SDS011;14509;47.992;7.848;2023-03-12T06:16:05;1.67;;;1.30;;
2438;SDS011;14509;47.992;7.848;2023-03-12T06:18:09;1.20;;;1.10;;
2438;SDS011;14509;47.992;7.848;2023-03-12T06:20:11;1.13;;;1.03;;
2438;SDS011;14509;47.992;7.848;2023-03-12T06:22:13;1.97;;;0.90;;
2438;SDS011;14509;47.992;7.848;2023-03-12T06:24:15;0.90;;;0.70;;
2438;SDS011;14509;47.992;7.848;2023-03-12T06:26:31;1.20;;;0.87;;
2438;SDS011;14509;47.992;7.848;2023-03-12T06:28:33;1.17;;;0.90;;
2438;SDS011;14509;47.992;7.848;2023-03-12T06:30:35;1.30;;;1.07;;
2438;SDS011;14509;47.992;7.848;2023-03-12T06:32:39;1.40;;;1.30;;
2438;SDS011;14509;47.992;7.848;2023-03-12T06:34:40;1.20;;;1.10;;
2438;SDS011;14509;47.992;7.848;2023-03-12T06:36:42;1.10;;;1.00;;
2438;SDS011;14509;47.992;7.848;2023-03-12T06:38:44;1.17;;;1.00;;
2438;SDS011;14509;47.992;7.848;2023-03-12T06:40:52;1.40;;;1.13;;
2438;SDS011;14509;47.992;7.848;2023-03-12T06:42:54;1.13;;;0.77;;
2438;SDS011;14509;47.992;7.848;2023-03-12T06:44:56;2.10;;;0.80;;
2438;SDS011;14509;47.992;7.848;2023-03-12T06:46:58;1.57;;;0.73;;
2438;SDS011;14509;47.992;7.848;2023-03-12T06:49:01;1.37;;;1.23;;
2438;SDS011;14509;47.992;7.848;2023-03-12T06:51:04;1.93;;;0.97;;
2438;SDS011;14509;47.992;7.848;2023-03-12T06:53:06;1.80;;;1.13;;
2438;SDS011;14509;47.992;7.848;2023-03-12T06:55:08;2.40;;;1.00;;
2438;SDS011;14509;47.992;7.848;2023-03-12T06:57:10;4.27;;;1.33;;
2438;SDS011;14509;47.992;7.848;2023-03-12T06:59:12;1.80;;;0.90;;
2438;SDS011;14509;47.992;7.848;2023-03-12T07:01:13;1.13;;;1.03;;
2438;SDS011;14509;47.992;7.848;2023-03-12T07:03:15;0.80;;;0.77;;
2438;SDS011;14509;47.992;7.848;2023-03-12T07:05:18;1.57;;;0.80;;
2438;SDS011;14509;47.992;7.848;2023-03-12T07:07:20;1.23;;;1.10;;
2438;SDS011;14509;47.992;7.848;2023-03-12T07:09:22;0.93;;;0.80;;
2438;SDS011;14509;47.992;7.848;2023-03-12T07:11:24;1.17;;;0.77;;
2438;SDS011;14509;47.992;7.848;2023-03-12T07:13:26;2.87;;;1.13;;
2438;SDS011;14509;47.992;7.848;2023-03-12T07:15:28;1.30;;;0.80;;
2438;SDS011;14509;47.992;7.848;2023-03-12T07:17:30;0.90;;;0.70;;
2438;SDS011;14509;47.992;7.848;2023-03-12T07:19:31;1.20;;;1.10;;
2438;SDS011;14509;47.992;7.848;2023-03-12T07:21:35;0.90;;;0.83;;
2438;SDS011;14509;47.992;7.848;2023-03-12T07:23:36;1.93;;;1.73;;
2438;SDS011;14509;47.992;7.848;2023-03-12T07:25:39;1.17;;;1.00;;
2438;SDS011;14509;47.992;7.848;2023-03-12T07:27:42;2.23;;;0.80;;
2438;SDS011;14509;47.992;7.848;2023-03-12T07:29:44;1.20;;;0.90;;
2438;SDS011;14509;47.992;7.848;2023-03-12T07:31:46;1.90;;;0.67;;
2438;SDS011;14509;47.992;7.848;2023-03-12T07:33:48;1.47;;;1.30;;
2438;SDS011;14509;47.992;7.848;2023-03-12T07:35:49;1.77;;;1.07;;
2438;SDS011;14509;47.992;7.848;2023-03-12T07:37:53;1.10;;;0.97;;
2438;SDS011;14509;47.992;7.848;2023-03-12T07:39:55;1.10;;;1.00;;
2438;SDS011;14509;47.992;7.848;2023-03-12T07:41:56;1.43;;;1.30;;
2438;SDS011;14509;47.992;7.848;2023-03-12T07:43:59;0.83;;;0.73;;
2438;SDS011;14509;47.992;7.848;2023-03-12T07:46:00;0.80;;;0.60;;
2438;SDS011;14509;47.992;7.848;2023-03-12T07:48:02;1.70;;;1.00;;
2438;SDS011;14509;47.992;7.848;2023-03-12T07:50:05;2.33;;;1.20;;
2438;SDS011;14509;47.992;7.848;2023-03-12T07:52:08;1.00;;;0.97;;
2438;SDS011;14509;47.992;7.848;2023-03-12T07:54:11;3.60;;;1.10;;
2438;SDS011;14509;47.992;7.848;2023-03-12T07:56:13;1.43;;;1.00;;
2438;SDS011;14509;47.992;7.848;2023-03-12T07:58:15;1.20;;;1.10;;
2438;SDS011;14509;47.992;7.848;2023-03-12T08:00:17;1.70;;;1.07;;
2438;SDS011;14509;47.992;7.848;2023-03-12T08:02:20;1.13;;;1.03;;
2438;SDS011;14509;47.992;7.848;2023-03-12T08:04:22;2.30;;;1.00;;
2438;SDS011;14509;47.992;7.848;2023-03-12T08:06:24;0.93;;;0.83;;
2438;SDS011;14509;47.992;7.848;2023-03-12T08:08:25;1.67;;;1.10;;
2438;SDS011;14509;47.992;7.848;2023-03-12T08:10:29;1.30;;;1.20;;
2438;SDS011;14509;47.992;7.848;2023-03-12T08:12:31;1.03;;;0.90;;
2438;SDS011;14509;47.992;7.848;2023-03-12T08:14:33;1.60;;;1.07;;
2438;SDS011;14509;47.992;7.848;2023-03-12T08:16:35;1.77;;;0.83;;
2438;SDS011;14509;47.992;7.848;2023-03-12T08:18:41;0.87;;;0.77;;
2438;SDS011;14509;47.992;7.848;2023-03-12T08:20:43;3.73;;;1.00;;
2438;SDS011;14509;47.992;7.848;2023-03-12T08:22:47;2.20;;;1.00;;
2438;SDS011;14509;47.992;7.848;2023-03-12T08:24:50;1.07;;;0.87;;
2438;SDS011;14509;47.992;7.848;2023-03-12T08:32:14;6.50;;;1.00;;
2438;SDS011;14509;47.992;7.848;2023-03-12T08:34:24;0.80;;;0.50;;
2438;SDS011;14509;47.992;7.848;2023-03-12T08:36:26;1.30;;;0.67;;
2438;SDS011;14509;47.992;7.848;2023-03-12T08:38:30;1.00;;;0.83;;
2438;SDS011;14509;47.992;7.848;2023-03-12T08:40:32;0.97;;;0.60;;
2438;SDS011;14509;47.992;7.848;2023-03-12T08:42:34;0.50;;;0.40;;
2438;SDS011;14509;47.992;7.848;2023-03-12T08:44:41;1.07;;;0.80;;
2438;SDS011;14509;47.992;7.848;2023-03-12T08:47:06;0.60;;;0.57;;
2438;SDS011;14509;47.992;7.848;2023-03-12T08:49:08;1.80;;;0.77;;
2438;SDS011;14509;47.992;7.848;2023-03-12T08:51:15;1.20;;;0.97;;
2438;SDS011;14509;47.992;7.848;2023-03-12T08:53:20;0.50;;;0.50;;
2438;SDS011;14509;47.992;7.848;2023-03-12T08:55:29;0.50;;;0.50;;
2438;SDS011;14509;47.992;7.848;2023-03-12T08:57:48;0.50;;;0.50;;
2438;SDS011;14509;47.992;7.848;2023-03-12T08:59:50;1.03;;;0.80;;
2438;SDS011;14509;47.992;7.848;2023-03-12T09:01:54;0.60;;;0.50;;
2438;SDS011;14509;47.992;7.848;2023-03-12T09:03:58;1.87;;;0.80;;
2438;SDS011;14509;47.992;7.848;2023-03-12T09:06:08;0.73;;;0.63;;
2438;SDS011;14509;47.992;7.848;2023-03-12T09:08:18;1.00;;;0.63;;
2438;SDS011;14509;47.992;7.848;2023-03-12T09:10:24;0.70;;;0.40;;
2438;SDS011;14509;47.992;7.848;2023-03-12T09:12:48;0.93;;;0.60;;
2438;SDS011;14509;47.992;7.848;2023-03-12T09:14:53;0.70;;;0.50;;
2438;SDS011;14509;47.992;7.848;2023-03-12T09:16:55;0.60;;;0.40;;
2438;SDS011;14509;47.992;7.848;2023-03-12T09:19:10;0.90;;;0.70;;
2438;SDS011;14509;47.992;7.848;2023-03-12T09:21:15;0.60;;;0.50;;
2438;SDS011;14509;47.992;7.848;2023-03-12T09:23:24;1.10;;;0.70;;
2438;SDS011;14509;47.992;7.848;2023-03-12T09:25:39;0.77;;;0.63;;
2438;SDS011;14509;47.992;7.848;2023-03-12T09:27:46;1.03;;;0.60;;
2438;SDS011;14509;47.992;7.848;2023-03-12T09:30:02;0.70;;;0.70;;
2438;SDS011;14509;47.992;7.848;2023-03-12T09:34:51;1.00;;;0.90;;
2438;SDS011;14509;47.992;7.848;2023-03-12T09:37:19;0.50;;;0.40;;
2438;SDS011;14509;47.992;7.848;2023-03-12T09:39:47;0.57;;;0.50;;
2438;SDS011;14509;47.992;7.848;2023-03-12T09:42:22;1.60;;;0.60;;
2438;SDS011;14509;47.992;7.848;2023-03-12T09:44:53;1.70;;;0.90;;
2438;SDS011;14509;47.992;7.848;2023-03-12T09:49:32;0.70;;;0.40;;
2438;SDS011;14509;47.992;7.848;2023-03-12T09:52:21;2.97;;;2.07;;
2438;SDS011;14509;47.992;7.848;2023-03-12T09:55:37;3.07;;;1.57;;
2438;SDS011;14509;47.992;7.848;2023-03-12T10:08:34;1.10;;;0.60;;
2438;SDS011;14509;47.992;7.848;2023-03-12T10:27:54;1.60;;;0.73;;
2438;SDS011;14509;47.992;7.848;2023-03-12T10:34:14;0.80;;;0.60;;
2438;SDS011;14509;47.992;7.848;2023-03-12T10:42:20;0.93;;;0.77;;
2438;SDS011;14509;47.992;7.848;2023-03-12T10:48:07;2.17;;;1.13;;
2438;SDS011;14509;47.992;7.848;2023-03-12T10:51:32;0.70;;;0.60;;
2438;SDS011;14509;47.992;7.848;2023-03-12T10:54:25;1.23;;;0.67;;
2438;SDS011;14509;47.992;7.848;2023-03-12T10:56:59;3.70;;;0.97;;
2438;SDS011;14509;47.992;7.848;2023-03-12T10:59:41;0.80;;;0.60;;
2438;SDS011;14509;47.992;7.848;2023-03-12T11:01:57;1.00;;;0.77;;
2438;SDS011;14509;47.992;7.848;2023-03-12T11:04:17;1.80;;;0.67;;
2438;SDS011;14509;47.992;7.848;2023-03-12T11:06:28;1.03;;;0.83;;
2438;SDS011;14509;47.992;7.848;2023-03-12T11:09:05;1.37;;;0.90;;
2438;SDS011;14509;47.992;7.848;2023-03-12T11:11:26;1.27;;;0.80;;
2438;SDS011;14509;47.992;7.848;2023-03-12T11:14:25;0.70;;;0.60;;
2438;SDS011;14509;47.992;7.848;2023-03-12T11:17:18;1.60;;;0.70;;
2438;SDS011;14509;47.992;7.848;2023-03-12T11:19:46;1.23;;;0.70;;
2438;SDS011;14509;47.992;7.848;2023-03-12T11:21:53;1.93;;;0.90;;
2438;SDS011;14509;47.992;7.848;2023-03-12T11:26:37;1.90;;;1.13;;
2438;SDS011;14509;47.992;7.848;2023-03-12T11:28:55;2.73;;;1.97;;
2438;SDS011;14509;47.992;7.848;2023-03-12T11:31:02;1.90;;;1.43;;
2438;SDS011;14509;47.992;7.848;2023-03-12T11:33:10;4.70;;;1.13;;
2438;SDS011;14509;47.992;7.848;2023-03-12T11:35:15;1.83;;;1.00;;
2438;SDS011;14509;47.992;7.848;2023-03-12T11:37:49;5.33;;;2.43;;
2438;SDS011;14509;47.992;7.848;2023-03-12T11:40:16;1.23;;;0.53;;
2438;SDS011;14509;47.992;7.848;2023-03-12T11:42:36;3.17;;;1.60;;
2438;SDS011;14509;47.992;7.848;2023-03-12T11:59:42;2.17;;;0.70;;
2438;SDS011;14509;47.992;7.848;2023-03-12T12:02:21;1.60;;;1.30;;
2438;SDS011;14509;47.992;7.848;2023-03-12T12:06:30;8.63;;;1.20;;
2438;SDS011;14509;47.992;7.848;2023-03-12T12:08:40;3.33;;;1.13;;
2438;SDS011;14509;47.992;7.848;2023-03-12T12:11:08;1.63;;;1.03;;
2438;SDS011;14509;47.992;7.848;2023-03-12T12:13:41;4.40;;;1.53;;
2438;SDS011;14509;47.992;7.848;2023-03-12T12:16:30;5.67;;;1.27;;
2438;SDS011;14509;47.992;7.848;2023-03-12T12:19:10;6.47;;;0.80;;
2438;SDS011;14509;47.992;7.848;2023-03-12T12:37:34;3.30;;;1.07;;
2438;SDS011;14509;47.992;7.848;2023-03-12T12:40:09;4.90;;;1.03;;
2438;SDS011;14509;47.992;7.848;2023-03-12T12:42:50;4.23;;;1.27;;
2438;SDS011;14509;47.992;7.848;2023-03-12T12:45:23;6.00;;;1.10;;
2438;SDS011;14509;47.992;7.848;2023-03-12T12:48:06;7.73;;;1.10;;
2438;SDS011;14509;47.992;7.848;2023-03-12T12:50:17;2.50;;;1.23;;
2438;SDS011;14509;47.992;7.848;2023-03-12T12:52:40;2.50;;;1.10;;
2438;SDS011;14509;47.992;7.848;2023-03-12T12:55:07;3.37;;;0.93;;
2438;SDS011;14509;47.992;7.848;2023-03-12T12:57:51;3.30;;;1.20;;
2438;SDS011;14509;47.992;7.848;2023-03-12T13:00:09;3.07;;;0.87;;
2438;SDS011;14509;47.992;7.848;2023-03-12T13:02:38;8.50;;;1.37;;
2438;SDS011;14509;47.992;7.848;2023-03-12T13:05:19;2.30;;;1.40;;
2438;SDS011;14509;47.992;7.848;2023-03-12T13:11:23;2.03;;;1.20;;
2438;SDS011;14509;47.992;7.848;2023-03-12T13:16:42;2.70;;;1.23;;
2438;SDS011;14509;47.992;7.848;2023-03-12T13:19:51;4.97;;;0.77;;
2438;SDS011;14509;47.992;7.848;2023-03-12T13:22:17;2.30;;;0.90;;
2438;SDS011;14509;47.992;7.848;2023-03-12T13:24:58;4.33;;;1.20;;
2438;SDS011;14509;47.992;7.848;2023-03-12T13:27:28;3.70;;;1.30;;
2438;SDS011;14509;47.992;7.848;2023-03-12T13:29:51;2.53;;;0.87;;
2438;SDS011;14509;47.992;7.848;2023-03-12T13:38:51;1.43;;;0.90;;
2438;SDS011;14509;47.992;7.848;2023-03-12T13:41:57;4.17;;;1.40;;
2438;SDS011;14509;47.992;7.848;2023-03-12T13:54:15;2.60;;;0.87;;
2438;SDS011;14509;47.992;7.848;2023-03-12T14:02:13;3.27;;;1.37;;
2438;SDS011;14509;47.992;7.848;2023-03-12T14:11:03;4.30;;;2.00;;
2438;SDS011;14509;47.992;7.848;2023-03-12T14:13:46;3.07;;;0.90;;
2438;SDS011;14509;47.992;7.848;2023-03-12T14:16:15;2.93;;;0.80;;
2438;SDS011;14509;47.992;7.848;2023-03-12T14:18:24;4.77;;;2.03;;
2438;SDS011;14509;47.992;7.848;2023-03-12T14:20:28;5.10;;;1.40;;
2438;SDS011;14509;47.992;7.848;2023-03-12T14:22:35;2.87;;;1.23;;
2438;SDS011;14509;47.992;7.848;2023-03-12T14:24:46;3.53;;;1.90;;
2438;SDS011;14509;47.992;7.848;2023-03-12T14:27:03;4.67;;;1.37;;
2438;SDS011;14509;47.992;7.848;2023-03-12T14:29:08;6.53;;;1.77;;
2438;SDS011;14509;47.992;7.848;2023-03-12T14:31:20;3.03;;;2.20;;
2438;SDS011;14509;47.992;7.848;2023-03-12T14:33:34;4.03;;;1.43;;
2438;SDS011;14509;47.992;7.848;2023-03-12T14:36:00;1.17;;;0.80;;
2438;SDS011;14509;47.992;7.848;2023-03-12T14:38:23;2.00;;;1.50;;
2438;SDS011;14509;47.992;7.848;2023-03-12T14:40:36;4.73;;;1.47;;
2438;SDS011;14509;47.992;7.848;2023-03-12T14:42:52;2.17;;;0.90;;
2438;SDS011;14509;47.992;7.848;2023-03-12T14:45:38;3.90;;;1.37;;
2438;SDS011;14509;47.992;7.848;2023-03-12T14:47:41;4.40;;;1.77;;
2438;SDS011;14509;47.992;7.848;2023-03-12T14:50:01;2.07;;;1.00;;
2438;SDS011;14509;47.992;7.848;2023-03-12T14:52:23;2.83;;;1.23;;
2438;SDS011;14509;47.992;7.848;2023-03-12T14:54:30;5.90;;;1.10;;
2438;SDS011;14509;47.992;7.848;2023-03-12T14:56:41;2.73;;;1.10;;
2438;SDS011;14509;47.992;7.848;2023-03-12T14:59:03;8.03;;;1.20;;
2438;SDS011;14509;47.992;7.848;2023-03-12T15:01:54;3.70;;;1.03;;
2438;SDS011;14509;47.992;7.848;2023-03-12T15:04:00;2.30;;;1.10;;
2438;SDS011;14509;47.992;7.848;2023-03-12T15:06:17;1.20;;;0.90;;
2438;SDS011;14509;47.992;7.848;2023-03-12T15:08:29;4.03;;;1.30;;
2438;SDS011;14509;47.992;7.848;2023-03-12T15:11:11;3.57;;;1.10;;
2438;SDS011;14509;47.992;7.848;2023-03-12T15:13:31;3.00;;;1.20;;
2438;SDS011;14509;47.992;7.848;2023-03-12T15:15:55;2.70;;;1.00;;